createdAt,value
2019-03-21T00:00:08.587Z,2.2
2019-03-21T00:00:58.548Z,2.1
2019-03-21T00:01:48.597Z,2.1
2019-03-21T00:02:38.561Z,2.1
2019-03-21T00:03:28.670Z,2.1
2019-03-21T00:04:24.137Z,2.1
2019-03-21T00:05:18.376Z,2.1
2019-03-21T00:06:08.386Z,2.1
2019-03-21T00:06:58.420Z,2.1
2019-03-21T00:07:50.561Z,2
2019-03-21T00:08:40.593Z,2
2019-03-21T00:09:30.595Z,2
2019-03-21T00:10:20.584Z,2
2019-03-21T00:11:10.591Z,2
2019-03-21T00:12:00.645Z,2
2019-03-21T00:12:50.849Z,2
2019-03-21T00:13:40.578Z,2
2019-03-21T00:14:30.594Z,2
2019-03-21T00:15:20.739Z,2
2019-03-21T00:16:10.592Z,2
2019-03-21T00:17:00.771Z,1.9
2019-03-21T00:17:50.715Z,1.9
2019-03-21T00:18:40.606Z,1.9
2019-03-21T00:19:30.620Z,1.9
2019-03-21T00:20:20.638Z,1.9
2019-03-21T00:21:10.628Z,1.9
2019-03-21T00:22:00.729Z,1.9
2019-03-21T00:22:50.634Z,1.9
2019-03-21T00:23:40.560Z,1.9
2019-03-21T00:24:30.618Z,1.9
2019-03-21T00:25:20.959Z,1.9
2019-03-21T00:26:10.706Z,1.8
2019-03-21T00:27:00.595Z,1.8
2019-03-21T00:27:50.635Z,1.8
2019-03-21T00:28:40.568Z,1.8
2019-03-21T00:29:30.573Z,1.8
2019-03-21T00:30:20.611Z,1.8
2019-03-21T00:31:10.613Z,1.8
2019-03-21T00:32:00.719Z,1.8
2019-03-21T00:32:50.611Z,1.8
2019-03-21T00:33:42.332Z,1.8
2019-03-21T00:34:32.317Z,1.8
2019-03-21T00:35:22.513Z,1.8
2019-03-21T00:36:12.330Z,1.7
2019-03-21T00:37:02.327Z,1.7
2019-03-21T00:37:52.654Z,1.7
2019-03-21T00:38:42.413Z,1.7
2019-03-21T00:39:33.117Z,1.7
2019-03-21T00:40:22.314Z,1.7
2019-03-21T00:41:12.325Z,1.7
2019-03-21T00:42:02.392Z,1.7
2019-03-21T00:42:52.686Z,1.6
2019-03-21T00:43:42.492Z,1.6
2019-03-21T00:44:35.943Z,1.6
2019-03-21T00:45:26.003Z,1.6
2019-03-21T00:46:15.977Z,1.6
2019-03-21T00:47:05.977Z,1.6
2019-03-21T00:47:56.042Z,1.6
2019-03-21T00:48:46.007Z,1.6
2019-03-21T00:49:35.971Z,1.6
2019-03-21T00:50:25.962Z,1.6
2019-03-21T00:51:16.462Z,1.6
2019-03-21T00:52:06.244Z,1.5
2019-03-21T00:52:56.242Z,1.6
2019-03-21T00:53:46.216Z,1.5
2019-03-21T00:54:36.224Z,1.5
2019-03-21T00:55:26.501Z,1.5
2019-03-21T00:56:16.505Z,1.5
2019-03-21T00:57:06.547Z,1.5
2019-03-21T00:57:58.918Z,1.5
2019-03-21T00:58:48.821Z,1.5
2019-03-21T00:59:38.796Z,1.5
2019-03-21T01:00:28.800Z,1.5
2019-03-21T01:01:18.778Z,1.5
2019-03-21T01:02:08.839Z,1.5
2019-03-21T01:02:58.842Z,1.5
2019-03-21T01:03:48.836Z,1.5
2019-03-21T01:04:38.782Z,1.4
2019-03-21T01:05:28.785Z,1.4
2019-03-21T01:06:18.883Z,1.4
2019-03-21T01:07:08.772Z,1.4
2019-03-21T01:07:59.070Z,1.4
2019-03-21T01:08:49.077Z,1.4
2019-03-21T01:09:39.190Z,1.3
2019-03-21T01:10:29.045Z,1.4
2019-03-21T01:11:19.072Z,1.3
2019-03-21T01:12:09.020Z,1.3
2019-03-21T01:13:00.680Z,1.3
2019-03-21T01:13:50.524Z,1.3
2019-03-21T01:14:42.596Z,1.3
2019-03-21T01:15:32.474Z,1.3
2019-03-21T01:16:22.579Z,1.3
2019-03-21T01:17:12.537Z,1.3
2019-03-21T01:18:02.497Z,1.3
2019-03-21T01:18:52.546Z,1.3
2019-03-21T01:19:42.505Z,1.3
2019-03-21T01:20:32.529Z,1.3
2019-03-21T01:21:22.553Z,1.3
2019-03-21T01:22:13.086Z,1.3
2019-03-21T01:23:03.104Z,1.2
2019-03-21T01:23:53.278Z,1.2
2019-03-21T01:24:43.057Z,1.2
2019-03-21T01:25:33.062Z,1.2
2019-03-21T01:26:23.158Z,1.2
2019-03-21T01:27:13.149Z,1.2
2019-03-21T01:28:03.391Z,1.2
2019-03-21T01:28:53.396Z,1.2
2019-03-21T01:29:43.372Z,1.1
2019-03-21T01:30:33.356Z,1.1
2019-03-21T01:31:23.342Z,1.1
2019-03-21T01:32:13.338Z,1.1
2019-03-21T01:33:03.345Z,1.1
2019-03-21T01:33:53.354Z,1.1
2019-03-21T01:34:43.338Z,1.1
2019-03-21T01:35:33.389Z,1.1
2019-03-21T01:36:23.602Z,1.1
2019-03-21T01:37:13.609Z,1.1
2019-03-21T01:38:03.612Z,1.1
2019-03-21T01:38:53.570Z,1.1
2019-03-21T01:39:43.596Z,1.1
2019-03-21T01:40:33.589Z,1.1
2019-03-21T01:41:23.635Z,1.1
2019-03-21T01:42:13.612Z,1.1
2019-03-21T01:43:03.643Z,1
2019-03-21T01:43:53.598Z,1
2019-03-21T01:44:43.624Z,1
2019-03-21T01:45:33.586Z,1
2019-03-21T01:46:23.570Z,1
2019-03-21T01:47:13.584Z,1
2019-03-21T01:48:03.959Z,1
2019-03-21T01:48:53.711Z,1
2019-03-21T01:49:43.653Z,1
2019-03-21T01:50:33.650Z,0.9
2019-03-21T01:51:23.752Z,0.9
2019-03-21T01:52:13.631Z,0.9
2019-03-21T01:53:05.507Z,0.9
2019-03-21T01:53:54.312Z,0.9
2019-03-21T01:54:44.500Z,0.9
2019-03-21T01:55:34.387Z,0.9
2019-03-21T01:56:24.315Z,0.9
2019-03-21T01:57:14.419Z,0.9
2019-03-21T01:58:04.796Z,0.9
2019-03-21T01:58:54.530Z,0.9
2019-03-21T01:59:44.514Z,0.9
2019-03-21T02:00:34.563Z,0.9
2019-03-21T02:01:24.632Z,0.9
2019-03-21T02:02:14.679Z,0.9
2019-03-21T02:03:04.488Z,0.9
2019-03-21T02:03:54.550Z,0.8
2019-03-21T02:04:44.591Z,0.8
2019-03-21T02:05:34.547Z,0.8
2019-03-21T02:06:24.537Z,0.8
2019-03-21T02:07:14.531Z,0.8
2019-03-21T02:08:04.661Z,0.8
2019-03-21T02:08:54.514Z,0.8
2019-03-21T02:09:44.567Z,0.8
2019-03-21T02:10:34.526Z,0.8
2019-03-21T02:11:25.775Z,0.8
2019-03-21T02:12:17.627Z,0.8
2019-03-21T02:13:07.588Z,0.7
2019-03-21T02:13:57.604Z,0.8
2019-03-21T02:14:51.951Z,0.8
2019-03-21T02:15:37.552Z,0.7
2019-03-21T02:16:27.576Z,0.7
2019-03-21T02:17:17.503Z,0.7
2019-03-21T02:18:07.525Z,0.7
2019-03-21T02:18:57.650Z,0.7
2019-03-21T02:19:47.565Z,0.7
2019-03-21T02:20:37.557Z,0.7
2019-03-21T02:21:28.069Z,0.7
2019-03-21T02:22:17.519Z,0.7
2019-03-21T02:23:07.562Z,0.7
2019-03-21T02:23:57.592Z,0.7
2019-03-21T02:24:47.551Z,0.7
2019-03-21T02:25:37.558Z,0.7
2019-03-21T02:26:27.709Z,0.6
2019-03-21T02:27:17.550Z,0.6
2019-03-21T02:28:07.603Z,0.6
2019-03-21T02:28:57.819Z,0.6
2019-03-21T02:29:49.036Z,0.6
2019-03-21T02:30:39.099Z,0.6
2019-03-21T02:31:29.583Z,0.6
2019-03-21T02:32:19.075Z,0.6
2019-03-21T02:33:09.074Z,0.6
2019-03-21T02:33:59.145Z,0.6
2019-03-21T02:34:49.125Z,0.6
2019-03-21T02:35:39.087Z,0.6
2019-03-21T02:36:29.194Z,0.6
2019-03-21T02:37:19.055Z,0.5
2019-03-21T02:38:11.227Z,0.5
2019-03-21T02:39:01.227Z,0.5
2019-03-21T02:39:59.129Z,0.5
2019-03-21T02:40:41.926Z,0.5
2019-03-21T02:41:31.439Z,0.5
2019-03-21T02:42:21.400Z,0.5
2019-03-21T02:43:11.236Z,0.5
2019-03-21T02:44:01.248Z,0.5
2019-03-21T02:44:51.448Z,0.5
2019-03-21T02:45:42.096Z,0.5
2019-03-21T02:46:31.993Z,0.5
2019-03-21T02:47:21.956Z,0.5
2019-03-21T02:48:11.938Z,0.5
2019-03-21T02:49:02.007Z,0.4
2019-03-21T02:49:51.980Z,0.4
2019-03-21T02:50:41.988Z,0.4
2019-03-21T02:51:32.876Z,0.4
2019-03-21T02:52:22.190Z,0.4
2019-03-21T02:53:12.221Z,0.4
2019-03-21T02:54:02.227Z,0.4
2019-03-21T02:54:52.262Z,0.4
2019-03-21T02:55:44.997Z,0.4
2019-03-21T02:56:34.892Z,0.4
2019-03-21T02:57:24.930Z,0.4
2019-03-21T02:58:14.985Z,0.3
2019-03-21T02:59:05.269Z,0.3
2019-03-21T02:59:57.119Z,0.3
2019-03-21T03:00:45.095Z,0.3
2019-03-21T03:01:35.456Z,0.3
2019-03-21T03:02:25.007Z,0.3
2019-03-21T03:03:14.930Z,0.3
2019-03-21T03:04:05.281Z,0.3
2019-03-21T03:04:55.024Z,0.3
2019-03-21T03:05:44.949Z,0.3
2019-03-21T03:06:35.395Z,0.3
2019-03-21T03:07:24.943Z,0.3
2019-03-21T03:08:15.197Z,0.3
2019-03-21T03:09:05.161Z,0.3
2019-03-21T03:09:55.870Z,0.3
2019-03-21T03:10:45.198Z,0.3
2019-03-21T03:11:35.768Z,0.2
2019-03-21T03:12:25.221Z,0.2
2019-03-21T03:13:16.349Z,0.2
2019-03-21T03:14:06.380Z,0.2
2019-03-21T03:14:56.327Z,0.2
2019-03-21T03:15:46.351Z,0.2
2019-03-21T03:16:36.310Z,0.2
2019-03-21T03:17:26.325Z,0.2
2019-03-21T03:18:16.439Z,0.2
2019-03-21T03:19:06.299Z,0.2
2019-03-21T03:19:56.367Z,0.2
2019-03-21T03:20:46.328Z,0.2
2019-03-21T03:21:37.295Z,0.2
2019-03-21T03:22:26.357Z,0.2
2019-03-21T03:23:16.340Z,0.2
2019-03-21T03:24:06.355Z,0.2
2019-03-21T03:24:56.337Z,0.2
2019-03-21T03:25:46.448Z,0.2
2019-03-21T03:26:37.322Z,0.2
2019-03-21T03:27:26.414Z,0.2
2019-03-21T03:28:16.393Z,0.1
2019-03-21T03:29:06.392Z,0.1
2019-03-21T03:29:56.313Z,0.1
2019-03-21T03:30:46.338Z,0.1
2019-03-21T03:31:38.104Z,0.1
2019-03-21T03:32:26.346Z,0.1
2019-03-21T03:33:16.355Z,0.1
2019-03-21T03:34:06.407Z,0.1
2019-03-21T03:34:56.429Z,0.1
2019-03-21T03:35:46.431Z,0.1
2019-03-21T03:36:36.411Z,0.1
2019-03-21T03:37:26.391Z,0.1
2019-03-21T03:38:16.402Z,0.1
2019-03-21T03:39:06.381Z,0.1
2019-03-21T03:39:56.352Z,0
2019-03-21T03:40:46.517Z,0
2019-03-21T03:41:36.395Z,0
2019-03-21T03:42:26.451Z,0
2019-03-21T03:43:16.367Z,0
2019-03-21T03:44:06.461Z,0
2019-03-21T03:44:56.312Z,0
2019-03-21T03:45:46.368Z,0
2019-03-21T03:46:36.584Z,-0.1
2019-03-21T03:47:26.382Z,-0.1
2019-03-21T03:48:19.527Z,0
2019-03-21T03:49:06.456Z,0
2019-03-21T03:49:56.665Z,0
2019-03-21T03:50:46.458Z,-0.1
2019-03-21T03:51:36.411Z,-0.1
2019-03-21T03:52:26.669Z,-0.1
2019-03-21T03:53:16.639Z,-0.1
2019-03-21T03:54:06.967Z,-0.1
2019-03-21T03:54:56.698Z,-0.1
2019-03-21T03:55:46.749Z,-0.1
2019-03-21T03:56:36.661Z,-0.1
2019-03-21T03:57:26.659Z,-0.1
2019-03-21T03:58:16.570Z,-0.1
2019-03-21T03:59:06.677Z,-0.1
2019-03-21T03:59:56.603Z,-0.1
2019-03-21T04:00:46.659Z,-0.1
2019-03-21T04:01:36.675Z,-0.1
2019-03-21T04:02:26.690Z,-0.1
2019-03-21T04:03:17.510Z,-0.1
2019-03-21T04:04:07.456Z,-0.2
2019-03-21T04:04:57.472Z,-0.2
2019-03-21T04:05:47.503Z,-0.2
2019-03-21T04:06:37.473Z,-0.2
2019-03-21T04:07:27.561Z,-0.2
2019-03-21T04:08:17.507Z,-0.2
2019-03-21T04:09:07.458Z,-0.2
2019-03-21T04:09:57.483Z,-0.2
2019-03-21T04:10:47.497Z,-0.2
2019-03-21T04:11:37.498Z,-0.2
2019-03-21T04:12:27.447Z,-0.2
2019-03-21T04:13:17.502Z,-0.2
2019-03-21T04:14:07.639Z,-0.2
2019-03-21T04:14:57.855Z,-0.2
2019-03-21T04:15:52.882Z,-0.2
2019-03-21T04:16:37.696Z,-0.2
2019-03-21T04:17:27.688Z,-0.2
2019-03-21T04:18:19.203Z,-0.3
2019-03-21T04:19:07.972Z,-0.3
2019-03-21T04:19:57.969Z,-0.3
2019-03-21T04:20:47.962Z,-0.3
2019-03-21T04:21:38.017Z,-0.3
2019-03-21T04:22:28.034Z,-0.3
2019-03-21T04:23:18.068Z,-0.3
2019-03-21T04:24:08.138Z,-0.3
2019-03-21T04:24:58.006Z,-0.3
2019-03-21T04:25:48.190Z,-0.3
2019-03-21T04:26:37.964Z,-0.3
2019-03-21T04:27:27.968Z,-0.3
2019-03-21T04:28:19.501Z,-0.3
2019-03-21T04:29:08.043Z,-0.3
2019-03-21T04:29:57.967Z,-0.3
2019-03-21T04:30:48.162Z,-0.3
2019-03-21T04:31:38.031Z,-0.3
2019-03-21T04:32:28.053Z,-0.3
2019-03-21T04:33:17.991Z,-0.4
2019-03-21T04:34:08.040Z,-0.4
2019-03-21T04:34:57.998Z,-0.4
2019-03-21T04:35:48.667Z,-0.4
2019-03-21T04:36:37.995Z,-0.4
2019-03-21T04:37:27.955Z,-0.4
2019-03-21T04:38:17.982Z,-0.4
2019-03-21T04:39:07.980Z,-0.4
2019-03-21T04:39:57.928Z,-0.4
2019-03-21T04:40:50.523Z,-0.4
2019-03-21T04:41:39.942Z,-0.5
2019-03-21T04:42:29.919Z,-0.4
2019-03-21T04:43:20.069Z,-0.4
2019-03-21T04:44:09.925Z,-0.4
2019-03-21T04:44:59.928Z,-0.4
2019-03-21T04:45:50.674Z,-0.4
2019-03-21T04:46:39.936Z,-0.4
2019-03-21T04:47:29.929Z,-0.5
2019-03-21T04:48:20.037Z,-0.5
2019-03-21T04:49:09.909Z,-0.5
2019-03-21T04:49:59.968Z,-0.5
2019-03-21T04:50:50.289Z,-0.5
2019-03-21T04:51:39.957Z,-0.5
2019-03-21T04:52:29.914Z,-0.5
2019-03-21T04:53:19.933Z,-0.5
2019-03-21T04:54:09.949Z,-0.5
2019-03-21T04:54:59.954Z,-0.5
2019-03-21T04:55:51.332Z,-0.5
2019-03-21T04:56:39.956Z,-0.5
2019-03-21T04:57:29.955Z,-0.5
2019-03-21T04:58:20.058Z,-0.5
2019-03-21T04:59:09.948Z,-0.5
2019-03-21T05:00:00.054Z,-0.5
2019-03-21T05:00:49.964Z,-0.5
2019-03-21T05:01:39.948Z,-0.6
2019-03-21T05:02:29.941Z,-0.6
2019-03-21T05:03:19.943Z,-0.6
2019-03-21T05:04:10.299Z,-0.6
2019-03-21T05:05:00.098Z,-0.6
2019-03-21T05:05:50.081Z,-0.6
2019-03-21T05:06:40.213Z,-0.6
2019-03-21T05:07:29.941Z,-0.6
2019-03-21T05:08:19.919Z,-0.6
2019-03-21T05:09:09.981Z,-0.6
2019-03-21T05:10:00.169Z,-0.6
2019-03-21T05:10:49.986Z,-0.6
2019-03-21T05:11:39.963Z,-0.6
2019-03-21T05:12:33.248Z,-0.6
2019-03-21T05:13:23.277Z,-0.6
2019-03-21T05:14:13.234Z,-0.6
2019-03-21T05:15:03.227Z,-0.6
2019-03-21T05:15:53.370Z,-0.6
2019-03-21T05:16:43.269Z,-0.6
2019-03-21T05:17:33.363Z,-0.7
2019-03-21T05:18:23.323Z,-0.7
2019-03-21T05:19:13.271Z,-0.7
2019-03-21T05:20:03.296Z,-0.7
2019-03-21T05:20:53.408Z,-0.7
2019-03-21T05:21:43.218Z,-0.7
2019-03-21T05:22:33.267Z,-0.7
2019-03-21T05:23:24.322Z,-0.7
2019-03-21T05:24:14.113Z,-0.7
2019-03-21T05:25:04.089Z,-0.7
2019-03-21T05:25:54.118Z,-0.7
2019-03-21T05:26:44.157Z,-0.7
2019-03-21T05:27:34.140Z,-0.7
2019-03-21T05:28:24.201Z,-0.7
2019-03-21T05:29:14.168Z,-0.7
2019-03-21T05:30:04.098Z,-0.7
2019-03-21T05:30:54.139Z,-0.7
2019-03-21T05:31:44.138Z,-0.7
2019-03-21T05:32:34.093Z,-0.7
2019-03-21T05:33:26.838Z,-0.7
2019-03-21T05:34:16.875Z,-0.7
2019-03-21T05:35:06.852Z,-0.7
2019-03-21T05:35:59.026Z,-0.7
2019-03-21T05:36:46.841Z,-0.7
2019-03-21T05:37:36.837Z,-0.7
2019-03-21T05:38:26.850Z,-0.7
2019-03-21T05:39:16.854Z,-0.7
2019-03-21T05:40:06.901Z,-0.8
2019-03-21T05:40:57.036Z,-0.8
2019-03-21T05:41:47.259Z,-0.8
2019-03-21T05:42:37.194Z,-0.8
2019-03-21T05:43:27.144Z,-0.8
2019-03-21T05:44:17.109Z,-0.8
2019-03-21T05:45:07.105Z,-0.8
2019-03-21T05:45:57.339Z,-0.8
2019-03-21T05:46:47.049Z,-0.8
2019-03-21T05:47:37.114Z,-0.8
2019-03-21T05:48:27.106Z,-0.8
2019-03-21T05:49:17.103Z,-0.8
2019-03-21T05:50:07.095Z,-0.8
2019-03-21T05:50:57.077Z,-0.8
2019-03-21T05:51:47.117Z,-0.8
2019-03-21T05:52:37.111Z,-0.8
2019-03-21T05:53:27.105Z,-0.8
2019-03-21T05:54:17.091Z,-0.8
2019-03-21T05:55:07.156Z,-0.8
2019-03-21T05:55:57.107Z,-0.8
2019-03-21T05:56:47.084Z,-0.8
2019-03-21T05:57:37.151Z,-0.8
2019-03-21T05:58:27.163Z,-0.8
2019-03-21T05:59:17.171Z,-0.9
2019-03-21T06:00:07.834Z,-0.8
2019-03-21T06:00:57.169Z,-0.9
2019-03-21T06:01:47.155Z,-0.8
2019-03-21T06:02:37.095Z,-0.8
2019-03-21T06:03:27.191Z,-0.9
2019-03-21T06:04:19.473Z,-0.8
2019-03-21T06:05:09.660Z,-0.9
2019-03-21T06:05:59.262Z,-0.8
2019-03-21T06:06:49.665Z,-0.8
2019-03-21T06:07:39.919Z,-0.8
2019-03-21T06:08:29.783Z,-0.8
2019-03-21T06:09:21.348Z,-0.8
2019-03-21T06:10:11.510Z,-0.8
2019-03-21T06:11:01.241Z,-0.8
2019-03-21T06:11:59.832Z,-0.8
2019-03-21T06:12:41.472Z,-0.8
2019-03-21T06:13:31.564Z,-0.8
2019-03-21T06:14:21.517Z,-0.8
2019-03-21T06:15:11.530Z,-0.8
2019-03-21T06:17:56.611Z,-0.8
2019-03-21T06:18:54.380Z,-0.8
2019-03-21T06:19:45.744Z,-0.8
2019-03-21T06:20:35.736Z,-0.9
2019-03-21T06:21:29.645Z,-0.8
2019-03-21T06:22:19.487Z,-0.8
2019-03-21T06:23:10.161Z,-0.8
2019-03-21T06:24:00.705Z,-0.8
2019-03-21T06:24:50.194Z,-0.8
2019-03-21T06:25:40.121Z,-0.8
2019-03-21T06:26:30.136Z,-0.8
2019-03-21T06:27:20.162Z,-0.8
2019-03-21T06:28:12.293Z,-0.8
2019-03-21T06:29:00.601Z,-0.8
2019-03-21T06:29:50.159Z,-0.8
2019-03-21T06:30:40.143Z,-0.7
2019-03-21T06:31:30.131Z,-0.7
2019-03-21T06:32:20.203Z,-0.7
2019-03-21T06:33:10.155Z,-0.7
2019-03-21T06:34:00.637Z,-0.7
2019-03-21T06:34:50.119Z,-0.7
2019-03-21T06:35:40.140Z,-0.7
2019-03-21T06:36:30.183Z,-0.7
2019-03-21T06:37:21.241Z,-0.7
2019-03-21T06:38:12.469Z,-0.7
2019-03-21T06:39:01.491Z,-0.7
2019-03-21T06:39:51.409Z,-0.7
2019-03-21T06:40:41.316Z,-0.7
2019-03-21T06:41:31.340Z,-0.7
2019-03-21T06:42:21.851Z,-0.7
2019-03-21T06:43:11.891Z,-0.6
2019-03-21T06:44:01.860Z,-0.6
2019-03-21T06:44:51.829Z,-0.6
2019-03-21T06:45:47.727Z,-0.6
2019-03-21T06:46:32.372Z,-0.6
2019-03-21T06:47:22.106Z,-0.6
2019-03-21T06:48:11.937Z,-0.6
2019-03-21T06:49:02.233Z,-0.6
2019-03-21T06:49:51.864Z,-0.5
2019-03-21T06:50:42.179Z,-0.5
2019-03-21T06:51:32.194Z,-0.5
2019-03-21T06:52:22.088Z,-0.5
2019-03-21T06:53:12.551Z,-0.4
2019-03-21T06:54:02.813Z,-0.4
2019-03-21T06:54:52.385Z,-0.4
2019-03-21T06:55:42.521Z,-0.4
2019-03-21T06:56:32.471Z,-0.4
2019-03-21T06:57:22.367Z,-0.4
2019-03-21T06:58:12.993Z,-0.4
2019-03-21T06:59:02.403Z,-0.3
2019-03-21T06:59:52.335Z,-0.3
2019-03-21T07:00:42.401Z,-0.3
2019-03-21T07:01:32.354Z,-0.2
2019-03-21T07:02:22.341Z,-0.2
2019-03-21T07:03:12.368Z,-0.2
2019-03-21T07:04:06.790Z,-0.2
2019-03-21T07:04:52.341Z,-0.1
2019-03-21T07:05:42.292Z,-0.1
2019-03-21T07:06:32.423Z,0
2019-03-21T07:07:22.320Z,0
2019-03-21T07:08:14.291Z,0.1
2019-03-21T07:09:02.396Z,0.1
2019-03-21T07:09:52.335Z,0.1
2019-03-21T07:10:42.407Z,0.1
2019-03-21T07:11:32.385Z,0.1
2019-03-21T07:12:22.367Z,0.1
2019-03-21T07:13:12.411Z,0.2
2019-03-21T07:14:02.494Z,0.2
2019-03-21T07:14:52.418Z,0.3
2019-03-21T07:15:42.358Z,0.3
2019-03-21T07:16:32.385Z,0.4
2019-03-21T07:17:23.162Z,0.4
2019-03-21T07:18:12.842Z,0.5
2019-03-21T07:19:02.834Z,0.6
2019-03-21T07:19:53.109Z,0.6
2019-03-21T07:20:42.922Z,0.7
2019-03-21T07:21:32.845Z,0.7
2019-03-21T07:22:22.869Z,0.7
2019-03-21T07:23:12.877Z,0.8
2019-03-21T07:24:02.868Z,0.8
2019-03-21T07:24:52.869Z,0.8
2019-03-21T07:25:42.940Z,0.8
2019-03-21T07:26:32.866Z,0.9
2019-03-21T07:27:23.118Z,0.9
2019-03-21T07:28:13.124Z,1
2019-03-21T07:29:03.190Z,1
2019-03-21T07:29:53.146Z,1.1
2019-03-21T07:30:43.114Z,1.1
2019-03-21T07:31:33.153Z,1.1
2019-03-21T07:32:33.019Z,1.1
2019-03-21T07:33:13.114Z,1.1
2019-03-21T07:34:03.208Z,1.2
2019-03-21T07:34:53.287Z,1.2
2019-03-21T07:35:43.146Z,1.3
2019-03-21T07:36:33.133Z,1.3
2019-03-21T07:37:23.172Z,1.3
2019-03-21T07:38:13.158Z,1.4
2019-03-21T07:39:03.373Z,1.4
2019-03-21T07:39:53.433Z,1.4
2019-03-21T07:40:43.402Z,1.5
2019-03-21T07:41:33.356Z,1.5
2019-03-21T07:42:24.184Z,1.5
2019-03-21T07:43:13.456Z,1.6
2019-03-21T07:44:03.402Z,1.6
2019-03-21T07:44:53.448Z,1.6
2019-03-21T07:45:43.350Z,1.7
2019-03-21T07:46:33.358Z,1.7
2019-03-21T07:47:23.473Z,1.7
2019-03-21T07:48:13.375Z,1.8
2019-03-21T07:49:03.545Z,1.8
2019-03-21T07:49:53.561Z,1.8
2019-03-21T07:50:43.475Z,1.8
2019-03-21T07:51:33.392Z,1.9
2019-03-21T07:52:23.463Z,1.9
2019-03-21T07:53:13.397Z,1.9
2019-03-21T07:54:03.374Z,2
2019-03-21T07:54:53.639Z,2
2019-03-21T07:55:43.618Z,2
2019-03-21T07:56:33.698Z,2.1
2019-03-21T07:57:23.609Z,2.1
2019-03-21T07:58:13.688Z,2.2
2019-03-21T07:59:03.646Z,2.2
2019-03-21T07:59:53.626Z,2.3
2019-03-21T08:00:43.620Z,2.3
2019-03-21T08:01:33.655Z,2.4
2019-03-21T08:02:25.102Z,2.5
2019-03-21T08:03:13.602Z,2.5
2019-03-21T08:04:03.677Z,2.6
2019-03-21T08:04:53.658Z,2.7
2019-03-21T08:05:43.881Z,2.8
2019-03-21T08:06:33.945Z,2.8
2019-03-21T08:07:25.901Z,2.8
2019-03-21T08:08:13.865Z,2.9
2019-03-21T08:09:03.930Z,2.9
2019-03-21T08:09:53.981Z,2.9
2019-03-21T08:10:43.881Z,3
2019-03-21T08:11:33.926Z,3
2019-03-21T08:12:27.370Z,3.1
2019-03-21T08:13:13.891Z,3.1
2019-03-21T08:14:04.007Z,3.1
2019-03-21T08:14:53.885Z,3.1
2019-03-21T08:15:43.849Z,3.2
2019-03-21T08:16:33.898Z,3.2
2019-03-21T08:17:23.935Z,3.2
2019-03-21T08:18:13.873Z,3.3
2019-03-21T08:19:03.917Z,3.3
2019-03-21T08:19:53.892Z,3.3
2019-03-21T08:20:55.562Z,3.4
2019-03-21T08:21:33.921Z,3.5
2019-03-21T08:22:23.886Z,3.5
2019-03-21T08:23:13.913Z,3.6
2019-03-21T08:24:04.004Z,3.7
2019-03-21T08:24:53.873Z,3.7
2019-03-21T08:25:43.921Z,3.8
2019-03-21T08:26:33.935Z,3.9
2019-03-21T08:27:23.883Z,4
2019-03-21T08:28:13.964Z,4
2019-03-21T08:29:03.933Z,4.1
2019-03-21T08:29:53.892Z,4.1
2019-03-21T08:30:44.102Z,4.2
2019-03-21T08:31:34.190Z,4.3
2019-03-21T08:32:24.152Z,4.3
2019-03-21T08:33:14.327Z,4.3
2019-03-21T08:34:04.177Z,4.4
2019-03-21T08:34:54.180Z,4.5
2019-03-21T08:35:44.141Z,4.5
2019-03-21T08:36:34.158Z,4.7
2019-03-21T08:37:24.150Z,4.8
2019-03-21T08:38:14.155Z,4.9
2019-03-21T08:39:04.152Z,4.9
2019-03-21T08:39:54.297Z,5
2019-03-21T08:40:44.264Z,5.1
2019-03-21T08:41:34.254Z,5.1
2019-03-21T08:42:24.243Z,5.2
2019-03-21T08:43:14.157Z,5.2
2019-03-21T08:44:04.384Z,5.3
2019-03-21T08:44:54.385Z,5.3
2019-03-21T08:45:44.189Z,5.3
2019-03-21T08:46:34.200Z,5.4
2019-03-21T08:47:24.503Z,5.5
2019-03-21T08:48:14.395Z,5.6
2019-03-21T08:49:04.239Z,5.6
2019-03-21T08:49:54.263Z,5.7
2019-03-21T08:50:44.302Z,5.7
2019-03-21T08:51:34.172Z,5.8
2019-03-21T08:52:24.157Z,5.8
2019-03-21T08:53:14.140Z,5.9
2019-03-21T08:54:04.190Z,5.9
2019-03-21T08:54:54.187Z,5.9
2019-03-21T08:55:44.153Z,6
2019-03-21T08:56:35.547Z,6
2019-03-21T08:57:24.149Z,6
2019-03-21T08:58:14.235Z,6.1
2019-03-21T08:59:04.870Z,6.2
2019-03-21T08:59:54.760Z,6.3
2019-03-21T09:00:44.717Z,6.4
2019-03-21T09:01:34.897Z,6.5
2019-03-21T09:02:24.776Z,6.5
2019-03-21T09:03:14.725Z,6.5
2019-03-21T09:04:04.788Z,6.6
2019-03-21T09:04:54.821Z,6.6
2019-03-21T09:05:44.692Z,6.7
2019-03-21T09:06:35.542Z,6.7
2019-03-21T09:07:24.755Z,6.7
2019-03-21T09:08:14.736Z,6.8
2019-03-21T09:09:04.734Z,6.8
2019-03-21T09:09:54.795Z,6.9
2019-03-21T09:10:44.735Z,6.9
2019-03-21T09:11:35.170Z,7
2019-03-21T09:12:24.749Z,7
2019-03-21T09:13:14.764Z,7.1
2019-03-21T09:14:04.805Z,7.1
2019-03-21T09:14:54.737Z,7.2
2019-03-21T09:15:44.720Z,7.2
2019-03-21T09:16:36.737Z,7.4
2019-03-21T09:17:24.795Z,7.5
2019-03-21T09:18:14.746Z,7.6
2019-03-21T09:19:04.958Z,7.7
2019-03-21T09:19:54.792Z,7.7
2019-03-21T09:20:44.738Z,7.7
2019-03-21T09:21:36.699Z,7.7
2019-03-21T09:22:27.316Z,7.6
2019-03-21T09:23:14.755Z,7.7
2019-03-21T09:24:04.815Z,7.7
2019-03-21T09:24:54.812Z,7.9
2019-03-21T09:25:44.785Z,8
2019-03-21T09:26:34.760Z,8
2019-03-21T09:27:26.003Z,8
2019-03-21T09:28:15.993Z,8.1
2019-03-21T09:29:06.009Z,8.1
2019-03-21T09:29:55.982Z,8.1
2019-03-21T09:30:46.047Z,8.2
2019-03-21T09:31:39.067Z,8.2
2019-03-21T09:32:27.176Z,8.3
2019-03-21T09:33:18.381Z,8.3
2019-03-21T09:34:08.220Z,8.3
2019-03-21T09:34:59.884Z,8.4
2019-03-21T09:35:49.910Z,8.4
2019-03-21T09:36:40.202Z,8.4
2019-03-21T09:37:29.963Z,8.5
2019-03-21T09:38:19.985Z,8.6
2019-03-21T09:39:09.916Z,8.6
2019-03-21T09:39:59.950Z,8.6
2019-03-21T09:40:49.938Z,8.7
2019-03-21T09:41:40.469Z,8.7
2019-03-21T09:42:33.895Z,8.8
2019-03-21T09:43:23.914Z,8.8
2019-03-21T09:44:13.907Z,8.9
2019-03-21T09:45:03.944Z,8.9
2019-03-21T09:45:53.948Z,9
2019-03-21T09:46:50.626Z,9
2019-03-21T09:47:33.912Z,9.1
2019-03-21T09:48:23.929Z,9.1
2019-03-21T09:49:14.380Z,9.2
2019-03-21T09:50:03.935Z,9.2
2019-03-21T09:50:53.935Z,9.2
2019-03-21T09:51:43.927Z,9.3
2019-03-21T09:52:33.925Z,9.3
2019-03-21T09:53:23.973Z,9.3
2019-03-21T09:54:14.514Z,9.4
2019-03-21T09:55:04.937Z,9.4
2019-03-21T09:55:53.923Z,9.5
2019-03-21T09:56:45.691Z,9.5
2019-03-21T09:57:33.901Z,9.6
2019-03-21T09:58:23.975Z,9.6
2019-03-21T09:59:13.921Z,9.6
2019-03-21T10:00:03.948Z,9.7
2019-03-21T10:00:53.901Z,9.7
2019-03-21T10:01:43.907Z,9.7
2019-03-21T10:02:33.932Z,9.7
2019-03-21T10:03:24.120Z,9.7
2019-03-21T10:04:13.947Z,9.8
2019-03-21T10:05:03.959Z,9.8
2019-03-21T10:05:53.942Z,9.9
2019-03-21T10:06:44.015Z,10
2019-03-21T10:07:33.924Z,10
2019-03-21T10:08:23.920Z,10.1
2019-03-21T10:09:13.987Z,10.1
2019-03-21T10:10:03.920Z,10.1
2019-03-21T10:10:53.936Z,10.2
2019-03-21T10:11:43.944Z,10.2
2019-03-21T10:12:33.913Z,10.2
2019-03-21T10:13:24.001Z,10.2
2019-03-21T10:14:14.516Z,10.3
2019-03-21T10:15:04.233Z,10.3
2019-03-21T10:15:54.193Z,10.3
2019-03-21T10:16:44.706Z,10.4
2019-03-21T10:17:34.235Z,10.4
2019-03-21T10:18:24.193Z,10.5
2019-03-21T10:19:14.186Z,10.5
2019-03-21T10:20:04.253Z,10.5
2019-03-21T10:20:54.188Z,10.6
2019-03-21T10:21:46.415Z,10.6
2019-03-21T10:22:34.187Z,10.6
2019-03-21T10:23:24.202Z,10.6
2019-03-21T10:24:14.369Z,10.7
2019-03-21T10:25:04.186Z,10.7
2019-03-21T10:25:54.176Z,10.8
2019-03-21T10:26:44.194Z,10.8
2019-03-21T10:27:34.182Z,10.8
2019-03-21T10:28:24.238Z,10.9
2019-03-21T10:29:14.228Z,10.9
2019-03-21T10:30:04.243Z,10.9
2019-03-21T10:30:54.193Z,11
2019-03-21T10:31:44.358Z,11
2019-03-21T10:32:34.202Z,11.1
2019-03-21T10:33:24.216Z,11.1
2019-03-21T10:34:14.315Z,11.1
2019-03-21T10:35:04.270Z,11.1
2019-03-21T10:35:54.219Z,11.2
2019-03-21T10:36:44.223Z,11.2
2019-03-21T10:37:34.265Z,11.3
2019-03-21T10:38:24.212Z,11.3
2019-03-21T10:39:14.197Z,11.4
2019-03-21T10:40:04.187Z,11.4
2019-03-21T10:40:54.228Z,11.4
2019-03-21T10:41:54.168Z,11.5
2019-03-21T10:42:44.175Z,11.5
2019-03-21T10:44:46.750Z,11.6
2019-03-21T10:45:37.543Z,11.6
2019-03-21T10:46:27.495Z,11.6
2019-03-21T10:47:17.460Z,11.7
2019-03-21T10:48:07.434Z,11.7
2019-03-21T10:48:57.456Z,11.8
2019-03-21T10:49:49.824Z,11.8
2019-03-21T10:50:37.456Z,11.9
2019-03-21T10:51:27.606Z,11.9
2019-03-21T10:52:17.424Z,12
2019-03-21T10:53:07.477Z,12.1
2019-03-21T10:53:57.516Z,12.1
2019-03-21T10:54:47.777Z,12.1
2019-03-21T10:55:38.380Z,12.1
2019-03-21T10:56:28.360Z,12.1
2019-03-21T10:57:18.376Z,12.1
2019-03-21T10:58:08.439Z,12.1
2019-03-21T10:58:58.339Z,12.2
2019-03-21T10:59:48.316Z,12.2
2019-03-21T11:00:38.385Z,12.3
2019-03-21T11:01:28.621Z,12.3
2019-03-21T11:02:19.166Z,12.4
2019-03-21T11:03:08.845Z,12.4
2019-03-21T11:03:58.858Z,12.5
2019-03-21T11:04:48.830Z,12.5
2019-03-21T11:27:11.003Z,13.6
2019-03-21T11:28:01.010Z,13.6
2019-03-21T11:28:50.994Z,13.7
2019-03-21T11:29:41.018Z,13.7
2019-03-21T11:30:30.998Z,13.8
2019-03-21T11:31:20.991Z,13.8
2019-03-21T11:32:10.966Z,13.9
2019-03-21T11:52:17.677Z,14.4
2019-03-21T11:53:00.826Z,14.4
2019-03-21T11:53:48.188Z,14.5
2019-03-21T11:54:38.253Z,14.5
2019-03-21T11:55:28.184Z,14.6
2019-03-21T11:56:18.170Z,14.6
2019-03-21T11:57:08.180Z,14.6
2019-03-21T11:57:58.205Z,14.5
2019-03-21T11:58:48.241Z,14.5
2019-03-21T11:59:50.648Z,14.5
2019-03-21T12:00:28.179Z,14.5
2019-03-21T12:01:18.187Z,14.6
2019-03-21T12:02:08.292Z,14.6
2019-03-21T12:02:58.463Z,14.6
2019-03-21T12:03:48.178Z,14.6
2019-03-21T12:04:38.731Z,14.6
2019-03-21T12:05:28.703Z,14.6
2019-03-21T12:06:18.670Z,14.6
2019-03-21T12:07:08.711Z,14.7